KNYG/NYG METAR and TAF weather

Enter ICAO airport designator
Station Type Date Time Source
KNYG METAR 2019/05/21 20:56 UTC NOAA

KNYG 212056Z AUTO 36009KT 10SM CLR 23/07 A3005 RMK AO2 SLP175 T02280072 51004 PWINO $


Station Type Date Time Source
KNYG Decoded METAR 2019/05/21 20:56 UTC NOAA

QUANTICO MARINE CORPS AIRFAC, VA, United States (KNYG) 38-30N 077-18W 3M
May 21, 2019 - 04:56 PM EDT / 2019.05.21 2056 UTC
Wind: from the N (360 degrees) at 10 MPH (9 KT):0
Visibility: 10 mile(s):0
Sky conditions: clear
Temperature: 73.0 F (22.8 C)
Dew Point: 45.0 F (7.2 C)
Relative Humidity: 36%
Pressure (altimeter): 30.05 in. Hg (1017 hPa)
Pressure tendency: 0.01 inches (0.4 hPa) higher than three hours ago
ob: KNYG 212056Z AUTO 36009KT 10SM CLR 23/07 A3005 RMK AO2 SLP175 T02280072 51004 PWINO
cycle: 21

Station Type Date Time Source
KNYG TAF 2019/05/21 21:06 UTC NOAA

TAF KNYG 2121/2221 36010G22KT SCT060 SCT150 510002 QNH3003INS
BECMG 2200/2202 VRB06KT 9999 SKC 500000 QNH3009INS
FM221200 05009KT 9999 FEW050 SCT080 QNH3021INS T12/2210Z T24/2220Z

Example: see airport list